Time;durP1;ratioP1;P1;durP2;ratioP2;P2;SDS_P1;SDS_P2;PMS_P1;PMS_P2;Temp;Humidity;BMP_temperature;BMP_pressure;BME280_temperature;BME280_humidity;BME280_pressure;Samples;Min_cycle;Max_cycle;Signal;HPM_P1;HPM_P2
2023/08/10 00:01:09;;;;;;;3.97;2.50;;;;;;;;;;5030995;28;20231;-50
2023/08/10 00:03:35;;;;;;;4.87;2.00;;;;;;;;;;5030965;28;20660;-51
2023/08/10 00:06:01;;;;;;;3.93;2.23;;;;;;;;;;5030931;28;20196;-50
2023/08/10 00:08:29;;;;;;;6.03;2.00;;;;;;;;;;5030016;28;20734;-50
2023/08/10 00:10:56;;;;;;;3.80;2.30;;;;;;;;;;5030746;28;20200;-50
2023/08/10 00:13:22;;;;;;;6.47;2.07;;;;;;;;;;5030876;28;20208;-50
2023/08/10 00:15:49;;;;;;;2.73;2.10;;;;;;;;;;5030697;28;20721;-50
2023/08/10 00:18:15;;;;;;;3.67;2.40;;;;;;;;;;5030651;28;20205;-50
2023/08/10 00:20:41;;;;;;;8.93;2.70;;;;;;;;;;5030543;28;20695;-50
2023/08/10 00:23:07;;;;;;;4.20;2.33;;;;;;;;;;5030681;28;20220;-50
2023/08/10 00:25:33;;;;;;;4.77;2.37;;;;;;;;;;5030425;28;20261;-50
2023/08/10 00:27:59;;;;;;;4.80;2.30;;;;;;;;;;5030482;28;20546;-50
2023/08/10 00:30:25;;;;;;;3.03;2.30;;;;;;;;;;5030529;28;20197;-50
2023/08/10 00:32:53;;;;;;;4.90;2.40;;;;;;;;;;5030734;28;20197;-50
2023/08/10 00:35:19;;;;;;;3.07;2.20;;;;;;;;;;5030712;28;20207;-50
2023/08/10 00:37:46;;;;;;;4.33;2.10;;;;;;;;;;5030631;28;20276;-49
2023/08/10 00:40:12;;;;;;;5.50;2.60;;;;;;;;;;5030381;28;20224;-51
2023/08/10 00:42:39;;;;;;;8.87;3.60;;;;;;;;;;5030555;28;20220;-50
2023/08/10 00:45:05;;;;;;;6.77;2.30;;;;;;;;;;5030538;28;20204;-50
2023/08/10 00:47:32;;;;;;;5.37;2.70;;;;;;;;;;5030305;28;20655;-50
2023/08/10 00:49:59;;;;;;;5.00;2.33;;;;;;;;;;5030314;28;20732;-51
2023/08/10 00:52:26;;;;;;;7.60;2.40;;;;;;;;;;5030404;28;20741;-50
2023/08/10 00:54:52;;;;;;;5.90;2.73;;;;;;;;;;5030579;28;20193;-50
2023/08/10 00:57:18;;;;;;;3.30;2.33;;;;;;;;;;5030248;28;20844;-51
2023/08/10 00:59:45;;;;;;;3.27;2.13;;;;;;;;;;5030272;28;20819;-50
2023/08/10 01:02:11;;;;;;;4.60;2.30;;;;;;;;;;5030268;28;20201;-50
2023/08/10 01:04:38;;;;;;;3.67;2.43;;;;;;;;;;5030488;28;20197;-50
2023/08/10 01:07:07;;;;;;;2.67;2.30;;;;;;;;;;5030327;28;20201;-50
2023/08/10 01:09:36;;;;;;;5.53;2.80;;;;;;;;;;5030408;28;20197;-50
2023/08/10 01:12:06;;;;;;;5.47;2.70;;;;;;;;;;5030302;28;20189;-50
2023/08/10 01:14:35;;;;;;;3.77;2.30;;;;;;;;;;5030342;28;20193;-50
2023/08/10 01:17:01;;;;;;;5.17;2.50;;;;;;;;;;5030166;28;20205;-50
2023/08/10 01:19:33;;;;;;;4.47;2.47;;;;;;;;;;5030197;28;20255;-51
2023/08/10 01:22:03;;;;;;;4.43;2.60;;;;;;;;;;5033769;28;20243;-50
2023/08/10 01:24:32;;;;;;;3.67;2.40;;;;;;;;;;5033856;28;20244;-50
2023/08/10 01:27:00;;;;;;;4.37;2.87;;;;;;;;;;5033642;28;20632;-50
2023/08/10 01:29:26;;;;;;;4.13;2.30;;;;;;;;;;5033542;28;20655;-50
2023/08/10 01:31:53;;;;;;;5.73;2.73;;;;;;;;;;5033802;28;20196;-51
2023/08/10 01:34:19;;;;;;;4.97;2.60;;;;;;;;;;5033666;28;20936;-50
2023/08/10 01:36:45;;;;;;;3.87;2.30;;;;;;;;;;5033472;28;20291;-50
2023/08/10 01:39:11;;;;;;;3.20;2.30;;;;;;;;;;5033335;28;20267;-50
2023/08/10 01:41:37;;;;;;;6.00;2.33;;;;;;;;;;5033752;28;20231;-50
2023/08/10 01:44:04;;;;;;;4.50;2.43;;;;;;;;;;5033063;28;20196;-50
2023/08/10 01:46:32;;;;;;;4.70;2.40;;;;;;;;;;5033185;28;20223;-50
2023/08/10 01:48:59;;;;;;;4.83;2.70;;;;;;;;;;5033152;28;20197;-50
2023/08/10 01:51:27;;;;;;;3.57;2.40;;;;;;;;;;5033351;28;20255;-50
2023/08/10 01:53:53;;;;;;;4.63;2.37;;;;;;;;;;5033292;28;20236;-50
2023/08/10 01:56:19;;;;;;;2.67;2.40;;;;;;;;;;5033372;28;20205;-50
2023/08/10 01:58:46;;;;;;;2.60;2.40;;;;;;;;;;5032926;28;20263;-50
2023/08/10 02:01:13;;;;;;;3.13;2.20;;;;;;;;;;5033110;28;20196;-51
2023/08/10 02:03:39;;;;;;;6.00;2.40;;;;;;;;;;5033074;28;20659;-51
2023/08/10 02:06:06;;;;;;;3.40;2.30;;;;;;;;;;5033300;28;20208;-50
2023/08/10 02:08:32;;;;;;;2.90;2.40;;;;;;;;;;5033011;28;20203;-50
2023/08/10 02:10:58;;;;;;;6.47;2.37;;;;;;;;;;5032920;28;20200;-50
2023/08/10 02:13:24;;;;;;;3.10;2.30;;;;;;;;;;5032924;28;20303;-50
2023/08/10 02:15:50;;;;;;;4.70;2.40;;;;;;;;;;5032926;28;20208;-50
2023/08/10 02:18:17;;;;;;;3.87;2.40;;;;;;;;;;5032714;28;20231;-51
2023/08/10 02:20:43;;;;;;;4.47;2.50;;;;;;;;;;5032581;28;20256;-50
2023/08/10 02:23:09;;;;;;;4.00;2.60;;;;;;;;;;5032645;28;20761;-50
2023/08/10 02:25:35;;;;;;;6.83;2.87;;;;;;;;;;5032510;28;20621;-50
2023/08/10 02:28:01;;;;;;;5.30;3.00;;;;;;;;;;5032549;28;20208;-50
2023/08/10 02:30:28;;;;;;;6.73;3.27;;;;;;;;;;5032801;28;20419;-49
2023/08/10 02:32:54;;;;;;;4.47;2.70;;;;;;;;;;5031696;28;20272;-50
2023/08/10 02:35:21;;;;;;;4.67;2.80;;;;;;;;;;5032599;28;20737;-50
2023/08/10 02:37:47;;;;;;;4.97;3.00;;;;;;;;;;5032569;28;20235;-50
2023/08/10 02:40:14;;;;;;;6.20;2.83;;;;;;;;;;5032151;28;20224;-50
2023/08/10 02:42:42;;;;;;;3.70;3.20;;;;;;;;;;5032456;28;20234;-50
2023/08/10 02:45:08;;;;;;;5.50;3.10;;;;;;;;;;5032386;28;20196;-50
2023/08/10 02:47:34;;;;;;;3.40;2.70;;;;;;;;;;5032455;28;20247;-50
2023/08/10 02:50:00;;;;;;;7.17;3.13;;;;;;;;;;5032188;28;20203;-50
2023/08/10 02:52:27;;;;;;;4.57;2.90;;;;;;;;;;5032068;28;20180;-50
2023/08/10 02:54:53;;;;;;;6.70;3.33;;;;;;;;;;5032043;28;20209;-49
2023/08/10 02:57:19;;;;;;;4.33;2.87;;;;;;;;;;5032181;28;20204;-49
2023/08/10 02:59:45;;;;;;;4.20;2.87;;;;;;;;;;5031747;28;20687;-49
2023/08/10 03:02:14;;;;;;;5.33;2.83;;;;;;;;;;5031964;28;20554;-50
2023/08/10 03:04:40;;;;;;;4.90;2.73;;;;;;;;;;5031973;28;20279;-50
2023/08/10 03:07:06;;;;;;;3.20;2.70;;;;;;;;;;5031957;28;20200;-49
2023/08/10 03:09:34;;;;;;;5.67;2.93;;;;;;;;;;5031797;28;20246;-50
2023/08/10 03:12:00;;;;;;;4.53;3.10;;;;;;;;;;5031733;28;20254;-49
2023/08/10 03:14:26;;;;;;;3.70;2.60;;;;;;;;;;5031712;28;20205;-50
2023/08/10 03:16:52;;;;;;;5.17;2.87;;;;;;;;;;5031785;28;20658;-49
2023/08/10 03:19:19;;;;;;;3.47;2.80;;;;;;;;;;5031543;28;20217;-50
2023/08/10 03:21:45;;;;;;;4.00;2.83;;;;;;;;;;5031575;28;20216;-50
2023/08/10 03:24:11;;;;;;;2.97;2.67;;;;;;;;;;5031319;28;20241;-50
2023/08/10 03:26:39;;;;;;;3.03;2.70;;;;;;;;;;5031060;28;20193;-50
2023/08/10 03:29:05;;;;;;;5.90;2.67;;;;;;;;;;5031314;28;20247;-50
2023/08/10 03:31:31;;;;;;;2.50;2.30;;;;;;;;;;5031540;28;20201;-50
2023/08/10 03:33:57;;;;;;;3.03;2.83;;;;;;;;;;5031500;28;20200;-50
2023/08/10 03:36:23;;;;;;;3.47;3.17;;;;;;;;;;5031357;28;20667;-49
2023/08/10 03:38:49;;;;;;;3.70;2.83;;;;;;;;;;5031448;28;20205;-50
2023/08/10 03:41:15;;;;;;;4.97;3.17;;;;;;;;;;5031232;28;20201;-49
2023/08/10 03:43:42;;;;;;;3.20;2.90;;;;;;;;;;5031051;28;20200;-50
2023/08/10 03:46:08;;;;;;;4.03;3.33;;;;;;;;;;5030963;28;20255;-50
2023/08/10 03:48:34;;;;;;;14.13;12.60;;;;;;;;;;5031339;28;20201;-50
2023/08/10 03:51:00;;;;;;;7.43;3.63;;;;;;;;;;5031046;28;20355;-50
2023/08/10 03:53:26;;;;;;;7.13;3.33;;;;;;;;;;5031022;28;20188;-49
2023/08/10 03:55:52;;;;;;;6.03;3.10;;;;;;;;;;5031250;28;20199;-49
2023/08/10 03:58:18;;;;;;;3.93;3.50;;;;;;;;;;5030763;28;20841;-50
2023/08/10 04:00:47;;;;;;;4.57;3.07;;;;;;;;;;5030424;28;20255;-50
2023/08/10 04:03:13;;;;;;;5.23;3.07;;;;;;;;;;5030517;28;20565;-52
2023/08/10 04:05:39;;;;;;;5.70;4.57;;;;;;;;;;5031011;28;20208;-51
2023/08/10 04:08:06;;;;;;;3.90;3.50;;;;;;;;;;5030930;28;20206;-50
2023/08/10 04:10:32;;;;;;;5.07;3.60;;;;;;;;;;5030495;28;20222;-50
2023/08/10 04:12:58;;;;;;;5.60;3.77;;;;;;;;;;5030633;28;20660;-50
2023/08/10 04:15:24;;;;;;;8.87;4.07;;;;;;;;;;5030684;28;20616;-51
2023/08/10 04:17:52;;;;;;;5.43;2.97;;;;;;;;;;5030834;28;20204;-50
2023/08/10 04:20:18;;;;;;;5.43;3.07;;;;;;;;;;5030574;28;20335;-50
2023/08/10 04:22:44;;;;;;;6.20;3.50;;;;;;;;;;5030608;28;20221;-50
2023/08/10 04:25:10;;;;;;;5.57;3.13;;;;;;;;;;5030460;28;20266;-50
2023/08/10 04:27:36;;;;;;;4.70;3.20;;;;;;;;;;5028617;28;20275;-50
2023/08/10 04:30:08;;;;;;;4.70;3.40;;;;;;;;;;5030279;28;20204;-50
2023/08/10 04:32:34;;;;;;;5.77;5.17;;;;;;;;;;5030834;28;20205;-50
2023/08/10 04:35:02;;;;;;;5.50;4.47;;;;;;;;;;5030415;28;20207;-51
2023/08/10 04:40:53;;;;;;;5.33;4.27;;;;;;;;;;4984638;28;20232;-50
2023/08/10 04:43:19;;;;;;;3.40;3.10;;;;;;;;;;5004758;28;20224;-50
2023/08/10 04:45:46;;;;;;;4.93;3.47;;;;;;;;;;5007336;28;20201;-50
2023/08/10 04:48:13;;;;;;;5.33;3.60;;;;;;;;;;5007465;28;20197;-50
2023/08/10 04:50:40;;;;;;;3.43;2.97;;;;;;;;;;5007395;28;20599;-50
2023/08/10 04:53:06;;;;;;;5.17;3.63;;;;;;;;;;5007659;28;20731;-50
2023/08/10 04:55:32;;;;;;;4.17;3.77;;;;;;;;;;5009492;28;20289;-50
2023/08/10 04:57:58;;;;;;;5.70;3.63;;;;;;;;;;5013006;28;20224;-50
2023/08/10 05:00:25;;;;;;;8.87;4.00;;;;;;;;;;5014032;28;20237;-49
2023/08/10 05:02:51;;;;;;;5.97;3.77;;;;;;;;;;5014401;28;20197;-50
2023/08/10 05:05:17;;;;;;;5.63;4.00;;;;;;;;;;5013950;28;20745;-50
2023/08/10 05:07:46;;;;;;;5.77;4.10;;;;;;;;;;5014223;28;20194;-50
2023/08/10 05:10:12;;;;;;;5.27;4.40;;;;;;;;;;5014169;28;20206;-50
2023/08/10 05:12:39;;;;;;;6.43;4.87;;;;;;;;;;5014187;28;20276;-50
2023/08/10 05:15:06;;;;;;;5.77;4.30;;;;;;;;;;5014212;28;20683;-50
2023/08/10 05:17:33;;;;;;;8.10;4.27;;;;;;;;;;5014299;28;20288;-50
2023/08/10 05:19:59;;;;;;;7.30;4.73;;;;;;;;;;5014049;28;20291;-50
2023/08/10 05:22:25;;;;;;;5.87;4.67;;;;;;;;;;5013878;28;20250;-50
2023/08/10 05:24:53;;;;;;;9.50;5.13;;;;;;;;;;5012273;28;20704;-51
2023/08/10 05:27:19;;;;;;;6.87;4.93;;;;;;;;;;5013837;28;20245;-50
2023/08/10 05:29:45;;;;;;;7.00;5.30;;;;;;;;;;5013745;28;20718;-51
2023/08/10 05:32:11;;;;;;;5.93;4.80;;;;;;;;;;5013700;28;20201;-49
2023/08/10 05:34:37;;;;;;;8.20;5.57;;;;;;;;;;5013991;28;20201;-50
2023/08/10 05:37:03;;;;;;;8.73;6.07;;;;;;;;;;5013659;28;20205;-50
2023/08/10 05:39:29;;;;;;;8.70;5.60;;;;;;;;;;5013458;28;20295;-50
2023/08/10 05:41:56;;;;;;;8.67;6.10;;;;;;;;;;5013485;28;20660;-50
2023/08/10 05:44:22;;;;;;;10.60;5.87;;;;;;;;;;5013498;28;20205;-50
2023/08/10 05:46:48;;;;;;;6.93;5.80;;;;;;;;;;5013151;28;20289;-50
2023/08/10 05:49:14;;;;;;;7.17;5.67;;;;;;;;;;5011515;28;20285;-50
2023/08/10 05:51:40;;;;;;;8.07;5.90;;;;;;;;;;5013681;28;20229;-50
2023/08/10 05:54:06;;;;;;;10.20;5.30;;;;;;;;;;5010215;28;20638;-50
2023/08/10 05:56:32;;;;;;;8.10;5.23;;;;;;;;;;5013261;28;20252;-50
2023/08/10 05:59:01;;;;;;;6.60;4.80;;;;;;;;;;5013039;28;20197;-51
2023/08/10 06:01:27;;;;;;;6.60;5.13;;;;;;;;;;5013333;28;20205;-50
2023/08/10 06:03:53;;;;;;;10.63;5.50;;;;;;;;;;5013133;28;20668;-50
2023/08/10 06:06:19;;;;;;;9.43;5.70;;;;;;;;;;5012136;28;20225;-50
2023/08/10 06:08:45;;;;;;;8.20;5.23;;;;;;;;;;5012858;28;20236;-50
2023/08/10 06:11:11;;;;;;;9.97;5.30;;;;;;;;;;5012889;28;20325;-50
2023/08/10 06:13:39;;;;;;;9.40;5.30;;;;;;;;;;5012941;28;20655;-51
2023/08/10 06:16:06;;;;;;;6.83;4.40;;;;;;;;;;5013070;28;20202;-50
2023/08/10 06:18:34;;;;;;;8.57;4.83;;;;;;;;;;5012972;28;20206;-51
2023/08/10 06:21:01;;;;;;;6.90;4.93;;;;;;;;;;5012643;28;20229;-50
2023/08/10 06:23:29;;;;;;;9.17;4.27;;;;;;;;;;5012482;28;20224;-50
2023/08/10 06:25:55;;;;;;;7.40;4.77;;;;;;;;;;5012700;28;20202;-50
2023/08/10 06:28:21;;;;;;;7.37;4.20;;;;;;;;;;5012705;28;20213;-51
2023/08/10 06:30:47;;;;;;;4.17;3.77;;;;;;;;;;5012835;28;20217;-51
2023/08/10 06:33:15;;;;;;;7.07;4.33;;;;;;;;;;5012379;28;20660;-51
2023/08/10 06:35:41;;;;;;;5.70;3.73;;;;;;;;;;5010747;28;20224;-51
2023/08/10 06:38:07;;;;;;;9.23;4.60;;;;;;;;;;5012753;28;20237;-51
2023/08/10 06:40:33;;;;;;;9.10;4.33;;;;;;;;;;5012407;28;20234;-51
2023/08/10 06:43:00;;;;;;;6.53;4.13;;;;;;;;;;5012315;28;20201;-51
2023/08/10 06:45:26;;;;;;;8.97;4.73;;;;;;;;;;5012176;28;20208;-51
2023/08/10 06:47:52;;;;;;;8.23;4.13;;;;;;;;;;5012561;28;20284;-50
2023/08/10 06:50:19;;;;;;;6.23;3.80;;;;;;;;;;5012207;28;20202;-50
2023/08/10 06:52:45;;;;;;;9.03;4.63;;;;;;;;;;5012473;28;20197;-51
2023/08/10 06:55:11;;;;;;;6.73;4.40;;;;;;;;;;5012110;28;20210;-50
2023/08/10 06:57:37;;;;;;;6.50;4.00;;;;;;;;;;5012272;28;20212;-50
2023/08/10 07:00:07;;;;;;;5.30;3.60;;;;;;;;;;5012064;28;20221;-50
2023/08/10 07:02:33;;;;;;;7.57;4.30;;;;;;;;;;5012078;28;20198;-51
2023/08/10 07:04:59;;;;;;;5.27;3.30;;;;;;;;;;5011975;28;20264;-51
2023/08/10 07:07:27;;;;;;;9.03;4.50;;;;;;;;;;5011767;28;20202;-51
2023/08/10 07:09:53;;;;;;;6.17;3.50;;;;;;;;;;5011980;28;20631;-51
2023/08/10 07:12:19;;;;;;;9.17;3.73;;;;;;;;;;5011612;28;20278;-52
2023/08/10 07:14:45;;;;;;;5.70;3.27;;;;;;;;;;5011727;28;20206;-52
2023/08/10 07:17:12;;;;;;;8.60;3.60;;;;;;;;;;5011508;28;20194;-50
2023/08/10 07:19:38;;;;;;;6.97;3.60;;;;;;;;;;5011489;28;20313;-53
2023/08/10 07:22:04;;;;;;;7.00;3.33;;;;;;;;;;5011776;28;20218;-51
2023/08/10 07:24:31;;;;;;;7.10;3.90;;;;;;;;;;5011464;28;20695;-52
2023/08/10 07:26:57;;;;;;;7.53;3.83;;;;;;;;;;5011658;28;20207;-53
2023/08/10 07:29:23;;;;;;;6.83;3.30;;;;;;;;;;5011479;28;20199;-52
2023/08/10 07:31:50;;;;;;;6.00;3.57;;;;;;;;;;5011706;28;20268;-53
2023/08/10 07:34:17;;;;;;;7.77;3.10;;;;;;;;;;5011324;28;20209;-52
2023/08/10 07:36:43;;;;;;;5.97;3.27;;;;;;;;;;5011310;28;20880;-51
2023/08/10 07:39:09;;;;;;;6.97;3.50;;;;;;;;;;4993713;28;20634;-52
2023/08/10 07:41:36;;;;;;;6.13;3.17;;;;;;;;;;5022006;28;20291;-53
2023/08/10 07:44:03;;;;;;;5.43;3.70;;;;;;;;;;5030077;28;20235;-52
2023/08/10 07:46:30;;;;;;;6.93;3.10;;;;;;;;;;5030602;28;20198;-52
2023/08/10 07:48:57;;;;;;;4.40;2.83;;;;;;;;;;5030488;28;20204;-52
2023/08/10 07:51:23;;;;;;;3.43;2.30;;;;;;;;;;5030746;28;20262;-51
2023/08/10 07:53:49;;;;;;;5.53;3.23;;;;;;;;;;5030953;28;20199;-52
2023/08/10 07:56:15;;;;;;;7.77;3.20;;;;;;;;;;5030333;28;20257;-52
2023/08/10 07:58:42;;;;;;;6.03;3.10;;;;;;;;;;5030519;28;20200;-52
2023/08/10 08:01:08;;;;;;;8.07;3.20;;;;;;;;;;5028384;28;20620;-51
2023/08/10 08:03:35;;;;;;;5.13;2.30;;;;;;;;;;5029155;28;20550;-51
2023/08/10 08:06:01;;;;;;;5.17;2.47;;;;;;;;;;5030588;28;20200;-52
2023/08/10 08:08:28;;;;;;;8.37;2.97;;;;;;;;;;5030530;28;20204;-54
2023/08/10 08:10:54;;;;;;;4.53;2.00;;;;;;;;;;5030504;28;20557;-54
2023/08/10 08:13:20;;;;;;;6.43;1.87;;;;;;;;;;5030619;28;20231;-54
2023/08/10 08:15:48;;;;;;;4.60;1.80;;;;;;;;;;5030563;28;20235;-54
2023/08/10 08:18:34;;;;;;;4.03;2.20;;;;;;;;;;5030401;28;20757;-54
2023/08/10 08:21:00;;;;;;;3.97;1.63;;;;;;;;;;5030458;28;20290;-54
2023/08/10 08:23:26;;;;;;;3.70;1.57;;;;;;;;;;5030113;28;20737;-54
2023/08/10 08:25:52;;;;;;;4.10;1.90;;;;;;;;;;5030525;28;20732;-54
2023/08/10 08:28:18;;;;;;;4.67;1.77;;;;;;;;;;5030527;28;20254;-54
2023/08/10 08:30:44;;;;;;;4.27;1.97;;;;;;;;;;5032520;28;20189;-54
2023/08/10 08:33:12;;;;;;;4.33;2.03;;;;;;;;;;5034593;28;20204;-54
2023/08/10 08:35:39;;;;;;;6.60;1.80;;;;;;;;;;5034525;28;20208;-54
2023/08/10 08:38:05;;;;;;;2.60;1.53;;;;;;;;;;5034898;28;20193;-54
2023/08/10 08:40:31;;;;;;;2.80;1.50;;;;;;;;;;5034230;28;20273;-54
2023/08/10 08:42:58;;;;;;;4.33;1.80;;;;;;;;;;5034364;28;20204;-54
2023/08/10 08:45:24;;;;;;;2.77;1.90;;;;;;;;;;5034236;28;20196;-54
2023/08/10 08:47:51;;;;;;;4.67;1.37;;;;;;;;;;5034569;28;20229;-54
2023/08/10 08:50:19;;;;;;;2.77;1.60;;;;;;;;;;5034288;28;20207;-54
2023/08/10 08:52:46;;;;;;;4.40;1.70;;;;;;;;;;5034190;28;20200;-54
2023/08/10 08:55:12;;;;;;;9.23;1.87;;;;;;;;;;5034007;28;20235;-54
2023/08/10 08:57:38;;;;;;;2.40;1.17;;;;;;;;;;5034058;28;20751;-54
2023/08/10 09:00:06;;;;;;;5.13;1.53;;;;;;;;;;5034207;28;20229;-54
2023/08/10 09:02:32;;;;;;;5.47;1.70;;;;;;;;;;5033961;28;20272;-54
2023/08/10 09:04:59;;;;;;;3.43;1.53;;;;;;;;;;5034191;28;20284;-54
2023/08/10 09:07:26;;;;;;;2.83;1.47;;;;;;;;;;5033910;28;20205;-54
2023/08/10 09:09:53;;;;;;;5.00;1.80;;;;;;;;;;5033921;28;20215;-54
2023/08/10 09:12:28;;;;;;;3.13;1.40;;;;;;;;;;5033900;28;20203;-53
2023/08/10 09:15:01;;;;;;;4.00;1.50;;;;;;;;;;5033973;28;20200;-54
2023/08/10 09:17:27;;;;;;;5.03;1.47;;;;;;;;;;5033780;28;20211;-54
2023/08/10 09:19:53;;;;;;;2.40;1.20;;;;;;;;;;5033885;28;20217;-53
2023/08/10 09:22:28;;;;;;;4.53;1.70;;;;;;;;;;5033737;28;20225;-53
2023/08/10 09:24:54;;;;;;;6.27;1.87;;;;;;;;;;5033629;28;20316;-53
2023/08/10 09:27:20;;;;;;;3.27;1.33;;;;;;;;;;5033656;28;20292;-53
2023/08/10 09:29:46;;;;;;;3.63;1.40;;;;;;;;;;5033631;28;20197;-54
2023/08/10 09:32:17;;;;;;;3.57;1.83;;;;;;;;;;5033031;28;20697;-53
2023/08/10 09:34:44;;;;;;;4.70;1.73;;;;;;;;;;5033472;28;20197;-53
2023/08/10 09:37:12;;;;;;;3.77;1.50;;;;;;;;;;5033581;28;20205;-53
2023/08/10 09:39:40;;;;;;;2.83;1.40;;;;;;;;;;5033728;28;20217;-52
2023/08/10 09:42:06;;;;;;;2.97;1.20;;;;;;;;;;5033493;28;20203;-53
2023/08/10 09:44:43;;;;;;;4.57;1.70;;;;;;;;;;5033455;28;20292;-53
2023/08/10 09:47:09;;;;;;;4.00;1.23;;;;;;;;;;5033417;28;20208;-53
2023/08/10 09:49:35;;;;;;;2.03;1.20;;;;;;;;;;5033744;28;20197;-52
2023/08/10 09:52:01;;;;;;;4.20;1.57;;;;;;;;;;5033175;28;20203;-52
2023/08/10 09:54:28;;;;;;;4.07;1.57;;;;;;;;;;5033115;28;20198;-54
2023/08/10 09:56:56;;;;;;;1.47;1.27;;;;;;;;;;5033351;28;20198;-53
2023/08/10 09:59:22;;;;;;;1.60;1.30;;;;;;;;;;5033304;28;20787;-53
2023/08/10 10:01:48;;;;;;;3.23;1.50;;;;;;;;;;5033481;28;20237;-52
2023/08/10 10:04:15;;;;;;;3.30;1.50;;;;;;;;;;5032987;28;20856;-52
2023/08/10 10:06:42;;;;;;;3.20;1.50;;;;;;;;;;5033174;28;20229;-52
2023/08/10 10:09:08;;;;;;;3.20;1.50;;;;;;;;;;5032892;28;20205;-52
2023/08/10 10:11:34;;;;;;;3.57;1.57;;;;;;;;;;5032743;28;20251;-51
2023/08/10 10:14:01;;;;;;;1.63;1.03;;;;;;;;;;5032508;28;20217;-52
2023/08/10 10:16:28;;;;;;;6.00;1.50;;;;;;;;;;5032519;28;20202;-53
2023/08/10 10:18:54;;;;;;;3.43;1.40;;;;;;;;;;5032660;28;20292;-53
2023/08/10 10:21:20;;;;;;;4.30;1.60;;;;;;;;;;5032580;28;20261;-53
2023/08/10 10:23:49;;;;;;;4.23;1.47;;;;;;;;;;5032496;28;20697;-52
2023/08/10 10:26:19;;;;;;;2.27;1.33;;;;;;;;;;5032645;28;20197;-51
2023/08/10 10:29:05;;;;;;;3.00;1.50;;;;;;;;;;5032498;28;20224;-51
2023/08/10 10:31:33;;;;;;;3.70;1.30;;;;;;;;;;5032389;28;20251;-52
2023/08/10 10:34:02;;;;;;;5.07;1.70;;;;;;;;;;5032565;28;20316;-53
2023/08/10 10:36:28;;;;;;;1.97;1.17;;;;;;;;;;5032212;28;20195;-52
2023/08/10 10:38:55;;;;;;;3.80;1.50;;;;;;;;;;5032346;28;20199;-52
2023/08/10 10:41:29;;;;;;;3.00;1.50;;;;;;;;;;5032317;28;20765;-52
2023/08/10 10:43:57;;;;;;;2.80;1.20;;;;;;;;;;5032194;28;20185;-52
2023/08/10 10:46:40;;;;;;;2.73;1.40;;;;;;;;;;5031971;28;20245;-52
2023/08/10 10:49:07;;;;;;;3.67;1.60;;;;;;;;;;5032269;28;20211;-52
2023/08/10 10:51:42;;;;;;;2.30;1.40;;;;;;;;;;5032147;28;20197;-52
2023/08/10 10:54:08;;;;;;;2.67;1.20;;;;;;;;;;5031496;28;20215;-52
2023/08/10 10:56:36;;;;;;;2.77;1.40;;;;;;;;;;5031936;28;20207;-52
2023/08/10 10:59:02;;;;;;;2.77;1.40;;;;;;;;;;5032018;28;20722;-52
2023/08/10 11:01:28;;;;;;;2.80;1.60;;;;;;;;;;5031679;28;20246;-53
2023/08/10 11:03:56;;;;;;;5.30;1.50;;;;;;;;;;5031829;28;20247;-53
2023/08/10 11:06:25;;;;;;;4.03;1.50;;;;;;;;;;5031637;28;20280;-53
2023/08/10 11:08:53;;;;;;;2.93;1.60;;;;;;;;;;5032019;28;20197;-53
2023/08/10 11:11:19;;;;;;;3.60;1.40;;;;;;;;;;5031703;28;20208;-53
2023/08/10 11:13:45;;;;;;;4.60;1.37;;;;;;;;;;5031570;28;20204;-53
2023/08/10 11:16:12;;;;;;;4.57;1.37;;;;;;;;;;5031430;28;20201;-53
2023/08/10 11:18:38;;;;;;;2.27;1.60;;;;;;;;;;5031502;28;20212;-54
2023/08/10 11:21:07;;;;;;;3.93;1.70;;;;;;;;;;5031583;28;20221;-54
2023/08/10 11:23:33;;;;;;;3.10;1.50;;;;;;;;;;5031195;28;20304;-53
2023/08/10 11:26:02;;;;;;;4.53;1.53;;;;;;;;;;5031369;28;20225;-54
2023/08/10 11:28:28;;;;;;;5.53;1.60;;;;;;;;;;5031119;28;20283;-53
2023/08/10 11:30:54;;;;;;;2.37;1.30;;;;;;;;;;5031362;28;20639;-53
2023/08/10 11:33:21;;;;;;;2.70;1.47;;;;;;;;;;5031446;28;20203;-53
2023/08/10 11:35:50;;;;;;;4.13;1.17;;;;;;;;;;5031321;28;20200;-54
2023/08/10 11:38:18;;;;;;;2.97;1.27;;;;;;;;;;5030993;28;20208;-53
2023/08/10 11:40:45;;;;;;;1.70;1.17;;;;;;;;;;5031116;28;20275;-53
2023/08/10 11:43:14;;;;;;;3.07;1.60;;;;;;;;;;5030979;28;20232;-52
2023/08/10 11:45:41;;;;;;;3.50;1.40;;;;;;;;;;5031018;28;20318;-54
2023/08/10 11:48:09;;;;;;;3.40;1.33;;;;;;;;;;5031395;28;20203;-53
2023/08/10 11:50:38;;;;;;;2.73;1.40;;;;;;;;;;5031213;28;20196;-52
2023/08/10 11:53:09;;;;;;;2.63;1.40;;;;;;;;;;5031467;28;20224;-52
2023/08/10 11:55:40;;;;;;;2.27;1.23;;;;;;;;;;5031449;28;20196;-54
2023/08/10 11:58:08;;;;;;;3.77;1.67;;;;;;;;;;5029511;28;20686;-52
2023/08/10 12:00:38;;;;;;;3.17;1.20;;;;;;;;;;5013315;28;20236;-52
2023/08/10 12:03:06;;;;;;;2.97;1.40;;;;;;;;;;5031113;28;20239;-51
2023/08/10 12:05:38;;;;;;;2.53;1.47;;;;;;;;;;5030698;28;20658;-52
2023/08/10 12:08:06;;;;;;;4.40;1.70;;;;;;;;;;5030926;28;20197;-52
2023/08/10 12:10:40;;;;;;;3.17;1.20;;;;;;;;;;5030841;28;20284;-52
2023/08/10 12:13:07;;;;;;;3.57;1.73;;;;;;;;;;5030908;28;20212;-52
2023/08/10 12:15:35;;;;;;;3.00;1.43;;;;;;;;;;5030530;28;20223;-51
2023/08/10 12:18:01;;;;;;;3.83;1.50;;;;;;;;;;5030281;28;20690;-51
2023/08/10 12:20:27;;;;;;;2.03;1.40;;;;;;;;;;5030055;28;20279;-51
2023/08/10 12:22:53;;;;;;;2.43;1.33;;;;;;;;;;5030438;28;20224;-51
2023/08/10 12:25:20;;;;;;;3.03;1.40;;;;;;;;;;5030716;28;20244;-51
2023/08/10 12:27:47;;;;;;;3.53;1.27;;;;;;;;;;5030429;28;20197;-51
2023/08/10 12:30:14;;;;;;;3.87;1.20;;;;;;;;;;5030489;28;20218;-51
2023/08/10 12:32:40;;;;;;;2.30;1.50;;;;;;;;;;5030485;28;20217;-52
2023/08/10 12:35:06;;;;;;;2.73;1.50;;;;;;;;;;5030731;28;20285;-52
2023/08/10 12:37:32;;;;;;;5.10;1.40;;;;;;;;;;5030276;28;20193;-52
2023/08/10 12:39:58;;;;;;;2.63;1.30;;;;;;;;;;5030201;28;20814;-52
2023/08/10 12:42:25;;;;;;;2.47;1.10;;;;;;;;;;5030342;28;20202;-52
2023/08/10 12:44:52;;;;;;;2.50;1.20;;;;;;;;;;5030545;28;20671;-52
2023/08/10 12:47:18;;;;;;;2.93;1.50;;;;;;;;;;5030379;28;20240;-52
2023/08/10 12:49:44;;;;;;;2.60;1.10;;;;;;;;;;5030286;28;20202;-53
2023/08/10 12:52:10;;;;;;;4.83;1.53;;;;;;;;;;5030353;28;20281;-52
2023/08/10 12:54:36;;;;;;;2.60;1.30;;;;;;;;;;5030767;28;20199;-53
2023/08/10 12:57:02;;;;;;;5.00;1.63;;;;;;;;;;5030562;28;20687;-53
2023/08/10 12:59:28;;;;;;;3.93;1.63;;;;;;;;;;5027961;28;20739;-52
2023/08/10 13:01:56;;;;;;;3.40;1.13;;;;;;;;;;5029790;28;20232;-52
2023/08/10 13:04:22;;;;;;;2.10;1.20;;;;;;;;;;5029778;28;20291;-52
2023/08/10 13:06:48;;;;;;;3.33;1.30;;;;;;;;;;5030221;28;20201;-52
2023/08/10 13:09:14;;;;;;;3.53;1.63;;;;;;;;;;5029816;28;20210;-52
2023/08/10 13:11:40;;;;;;;2.30;1.07;;;;;;;;;;5029897;28;20187;-52
2023/08/10 13:14:06;;;;;;;2.20;1.40;;;;;;;;;;5029945;28;20207;-52
2023/08/10 13:16:32;;;;;;;6.10;1.70;;;;;;;;;;5031374;28;20203;-52
2023/08/10 13:19:00;;;;;;;2.60;1.30;;;;;;;;;;5033536;28;20198;-51
2023/08/10 13:21:26;;;;;;;1.40;1.30;;;;;;;;;;5033278;28;20230;-52
2023/08/10 13:23:52;;;;;;;2.77;1.47;;;;;;;;;;5033578;28;20253;-51
2023/08/10 13:26:18;;;;;;;3.57;1.60;;;;;;;;;;5033213;28;20221;-51
2023/08/10 13:28:44;;;;;;;4.00;1.10;;;;;;;;;;5033445;28;20670;-51
2023/08/10 13:31:10;;;;;;;2.23;1.40;;;;;;;;;;5033875;28;20200;-51
2023/08/10 13:33:36;;;;;;;6.80;2.00;;;;;;;;;;5034230;28;20204;-52
2023/08/10 13:36:04;;;;;;;4.27;1.43;;;;;;;;;;5034027;28;20232;-52
2023/08/10 13:38:30;;;;;;;3.47;2.00;;;;;;;;;;5033825;28;20198;-50
2023/08/10 13:40:56;;;;;;;3.87;1.60;;;;;;;;;;5033192;28;20318;-52
2023/08/10 13:43:22;;;;;;;3.43;1.50;;;;;;;;;;5033623;28;20193;-51
2023/08/10 13:45:48;;;;;;;2.30;1.40;;;;;;;;;;5034016;28;20208;-53
2023/08/10 13:48:14;;;;;;;3.70;1.30;;;;;;;;;;5033902;28;20201;-51
2023/08/10 13:50:40;;;;;;;2.43;1.37;;;;;;;;;;5033564;28;20603;-53
2023/08/10 13:53:08;;;;;;;2.40;1.23;;;;;;;;;;5033787;28;20204;-52
2023/08/10 13:55:35;;;;;;;3.83;1.30;;;;;;;;;;5033644;28;20211;-52
2023/08/10 13:58:01;;;;;;;2.27;1.30;;;;;;;;;;5026974;28;20210;-50
2023/08/10 14:00:27;;;;;;;3.47;1.07;;;;;;;;;;5030704;28;20219;-49
2023/08/10 14:02:53;;;;;;;3.73;1.30;;;;;;;;;;5033642;28;20591;-49
2023/08/10 14:05:19;;;;;;;1.93;1.30;;;;;;;;;;5033120;28;20249;-50
2023/08/10 14:07:45;;;;;;;4.63;2.40;;;;;;;;;;5033443;28;20203;-50
2023/08/10 14:10:13;;;;;;;6.73;1.80;;;;;;;;;;5033121;28;20289;-50
2023/08/10 14:12:39;;;;;;;2.63;1.10;;;;;;;;;;5033116;28;20202;-49
2023/08/10 14:15:05;;;;;;;6.33;3.57;;;;;;;;;;5033278;28;20206;-50
2023/08/10 14:17:32;;;;;;;3.60;2.83;;;;;;;;;;5032529;28;20257;-49
2023/08/10 14:19:58;;;;;;;4.03;1.43;;;;;;;;;;5032626;28;20716;-50
2023/08/10 14:22:24;;;;;;;2.90;1.50;;;;;;;;;;5032312;28;20227;-51
2023/08/10 14:24:50;;;;;;;2.27;1.30;;;;;;;;;;5044696;28;20292;-50
2023/08/10 14:27:17;;;;;;;3.43;1.30;;;;;;;;;;5051755;28;20204;-51
2023/08/10 14:29:44;;;;;;;3.50;1.20;;;;;;;;;;5052209;28;20210;-50
2023/08/10 14:32:10;;;;;;;3.40;2.20;;;;;;;;;;5052500;28;20576;-53
2023/08/10 14:34:36;;;;;;;3.53;1.37;;;;;;;;;;5052479;28;20293;-50
2023/08/10 14:37:02;;;;;;;1.90;1.27;;;;;;;;;;5052398;28;20202;-53
2023/08/10 14:39:28;;;;;;;2.00;1.23;;;;;;;;;;5040439;28;20314;-50
2023/08/10 14:41:54;;;;;;;2.30;1.37;;;;;;;;;;5032152;28;20233;-50
2023/08/10 14:44:21;;;;;;;1.57;1.00;;;;;;;;;;5032356;28;20206;-51